sensor_id;sensor_type;location;lat;lon;timestamp;P1;durP1;ratioP1;P2;durP2;ratioP2
12296;SDS011;6211;49.124;9.152;2023-03-01T00:01:26;3.20;;;2.17;;
12296;SDS011;6211;49.124;9.152;2023-03-01T00:03:54;4.78;;;2.55;;
12296;SDS011;6211;49.124;9.152;2023-03-01T00:06:21;4.50;;;3.72;;
12296;SDS011;6211;49.124;9.152;2023-03-01T00:08:49;6.13;;;3.55;;
12296;SDS011;6211;49.124;9.152;2023-03-01T00:11:18;1.67;;;1.48;;
12296;SDS011;6211;49.124;9.152;2023-03-01T00:13:47;2.72;;;2.53;;
12296;SDS011;6211;49.124;9.152;2023-03-01T00:16:15;3.08;;;2.83;;
12296;SDS011;6211;49.124;9.152;2023-03-01T00:18:42;3.08;;;2.58;;
12296;SDS011;6211;49.124;9.152;2023-03-01T00:21:09;3.92;;;2.67;;
12296;SDS011;6211;49.124;9.152;2023-03-01T00:23:37;2.42;;;2.15;;
12296;SDS011;6211;49.124;9.152;2023-03-01T00:26:05;3.03;;;2.75;;
12296;SDS011;6211;49.124;9.152;2023-03-01T00:28:33;4.78;;;2.25;;
12296;SDS011;6211;49.124;9.152;2023-03-01T00:31:02;2.40;;;2.22;;
12296;SDS011;6211;49.124;9.152;2023-03-01T00:33:29;2.35;;;1.85;;
12296;SDS011;6211;49.124;9.152;2023-03-01T00:35:57;4.55;;;1.80;;
12296;SDS011;6211;49.124;9.152;2023-03-01T00:38:24;2.60;;;2.40;;
12296;SDS011;6211;49.124;9.152;2023-03-01T00:40:51;2.13;;;1.75;;
12296;SDS011;6211;49.124;9.152;2023-03-01T00:43:18;7.97;;;2.47;;
12296;SDS011;6211;49.124;9.152;2023-03-01T00:45:47;4.30;;;3.90;;
12296;SDS011;6211;49.124;9.152;2023-03-01T00:48:14;1.88;;;1.75;;
12296;SDS011;6211;49.124;9.152;2023-03-01T00:50:41;3.08;;;2.80;;
12296;SDS011;6211;49.124;9.152;2023-03-01T00:53:08;6.35;;;3.88;;
12296;SDS011;6211;49.124;9.152;2023-03-01T00:55:35;2.70;;;2.47;;
12296;SDS011;6211;49.124;9.152;2023-03-01T00:58:03;2.78;;;2.47;;
12296;SDS011;6211;49.124;9.152;2023-03-01T01:00:30;4.22;;;3.35;;
12296;SDS011;6211;49.124;9.152;2023-03-01T01:02:58;4.30;;;3.55;;
12296;SDS011;6211;49.124;9.152;2023-03-01T01:05:25;5.00;;;3.10;;
12296;SDS011;6211;49.124;9.152;2023-03-01T01:07:52;2.35;;;2.15;;
12296;SDS011;6211;49.124;9.152;2023-03-01T01:10:19;3.85;;;3.22;;
12296;SDS011;6211;49.124;9.152;2023-03-01T01:12:46;1.83;;;1.63;;
12296;SDS011;6211;49.124;9.152;2023-03-01T01:15:14;11.15;;;4.10;;
12296;SDS011;6211;49.124;9.152;2023-03-01T01:17:41;2.85;;;2.65;;
12296;SDS011;6211;49.124;9.152;2023-03-01T01:20:10;4.18;;;2.20;;
12296;SDS011;6211;49.124;9.152;2023-03-01T01:22:37;4.32;;;2.97;;
12296;SDS011;6211;49.124;9.152;2023-03-01T01:25:05;4.22;;;3.10;;
12296;SDS011;6211;49.124;9.152;2023-03-01T01:27:32;3.20;;;2.65;;
12296;SDS011;6211;49.124;9.152;2023-03-01T01:29:59;1.80;;;1.65;;
12296;SDS011;6211;49.124;9.152;2023-03-01T01:32:26;4.97;;;2.58;;
12296;SDS011;6211;49.124;9.152;2023-03-01T01:34:53;3.90;;;2.10;;
12296;SDS011;6211;49.124;9.152;2023-03-01T01:37:22;2.30;;;2.13;;
12296;SDS011;6211;49.124;9.152;2023-03-01T01:39:56;3.05;;;2.65;;
12296;SDS011;6211;49.124;9.152;2023-03-01T01:42:23;3.53;;;2.70;;
12296;SDS011;6211;49.124;9.152;2023-03-01T01:47:36;2.10;;;2.00;;
12296;SDS011;6211;49.124;9.152;2023-03-01T01:50:04;1.52;;;1.45;;
12296;SDS011;6211;49.124;9.152;2023-03-01T01:52:33;3.88;;;2.45;;
12296;SDS011;6211;49.124;9.152;2023-03-01T01:55:02;5.97;;;5.00;;
12296;SDS011;6211;49.124;9.152;2023-03-01T01:57:32;5.13;;;4.18;;
12296;SDS011;6211;49.124;9.152;2023-03-01T02:00:03;7.05;;;3.47;;
12296;SDS011;6211;49.124;9.152;2023-03-01T02:02:31;4.88;;;3.25;;
12296;SDS011;6211;49.124;9.152;2023-03-01T02:05:00;2.97;;;2.67;;
12296;SDS011;6211;49.124;9.152;2023-03-01T02:07:28;4.22;;;3.03;;
12296;SDS011;6211;49.124;9.152;2023-03-01T02:09:57;4.65;;;2.85;;
12296;SDS011;6211;49.124;9.152;2023-03-01T02:12:25;3.78;;;2.15;;
12296;SDS011;6211;49.124;9.152;2023-03-01T02:14:52;3.28;;;2.97;;
12296;SDS011;6211;49.124;9.152;2023-03-01T02:17:19;10.68;;;3.28;;
12296;SDS011;6211;49.124;9.152;2023-03-01T02:19:57;2.38;;;2.22;;
12296;SDS011;6211;49.124;9.152;2023-03-01T02:22:25;4.35;;;2.75;;
12296;SDS011;6211;49.124;9.152;2023-03-01T02:24:59;4.43;;;3.08;;
12296;SDS011;6211;49.124;9.152;2023-03-01T02:27:30;5.60;;;3.83;;
12296;SDS011;6211;49.124;9.152;2023-03-01T02:30:00;3.95;;;3.53;;
12296;SDS011;6211;49.124;9.152;2023-03-01T02:32:27;2.47;;;2.25;;
12296;SDS011;6211;49.124;9.152;2023-03-01T02:34:54;2.90;;;2.67;;
12296;SDS011;6211;49.124;9.152;2023-03-01T02:37:22;2.95;;;2.70;;
12296;SDS011;6211;49.124;9.152;2023-03-01T02:39:51;5.22;;;3.47;;
12296;SDS011;6211;49.124;9.152;2023-03-01T02:42:23;8.90;;;3.47;;
12296;SDS011;6211;49.124;9.152;2023-03-01T02:44:52;3.13;;;2.88;;
12296;SDS011;6211;49.124;9.152;2023-03-01T02:47:21;3.60;;;3.33;;
12296;SDS011;6211;49.124;9.152;2023-03-01T02:49:48;3.38;;;3.08;;
12296;SDS011;6211;49.124;9.152;2023-03-01T02:52:23;4.57;;;3.50;;
12296;SDS011;6211;49.124;9.152;2023-03-01T02:54:56;2.47;;;1.92;;
12296;SDS011;6211;49.124;9.152;2023-03-01T02:57:25;5.88;;;3.42;;
12296;SDS011;6211;49.124;9.152;2023-03-01T02:59:53;6.25;;;3.17;;
12296;SDS011;6211;49.124;9.152;2023-03-01T03:02:23;4.10;;;2.75;;
12296;SDS011;6211;49.124;9.152;2023-03-01T03:05:01;4.28;;;2.50;;
12296;SDS011;6211;49.124;9.152;2023-03-01T03:07:28;3.75;;;2.55;;
12296;SDS011;6211;49.124;9.152;2023-03-01T03:09:55;3.33;;;3.03;;
12296;SDS011;6211;49.124;9.152;2023-03-01T03:12:22;3.20;;;2.53;;
12296;SDS011;6211;49.124;9.152;2023-03-01T03:14:49;2.80;;;2.17;;
12296;SDS011;6211;49.124;9.152;2023-03-01T03:17:16;3.65;;;3.35;;
12296;SDS011;6211;49.124;9.152;2023-03-01T03:19:45;4.80;;;3.67;;
12296;SDS011;6211;49.124;9.152;2023-03-01T03:22:12;3.22;;;2.05;;
12296;SDS011;6211;49.124;9.152;2023-03-01T03:24:39;2.97;;;2.78;;
12296;SDS011;6211;49.124;9.152;2023-03-01T03:27:06;1.73;;;1.63;;
12296;SDS011;6211;49.124;9.152;2023-03-01T03:29:34;3.20;;;2.42;;
12296;SDS011;6211;49.124;9.152;2023-03-01T03:32:01;4.43;;;2.38;;
12296;SDS011;6211;49.124;9.152;2023-03-01T03:34:28;2.35;;;2.15;;
12296;SDS011;6211;49.124;9.152;2023-03-01T03:36:56;7.47;;;3.78;;
12296;SDS011;6211;49.124;9.152;2023-03-01T03:39:24;4.45;;;2.42;;
12296;SDS011;6211;49.124;9.152;2023-03-01T03:41:52;4.18;;;2.40;;
12296;SDS011;6211;49.124;9.152;2023-03-01T03:44:19;3.95;;;2.47;;
12296;SDS011;6211;49.124;9.152;2023-03-01T03:46:46;1.83;;;1.73;;
12296;SDS011;6211;49.124;9.152;2023-03-01T03:49:13;2.75;;;2.53;;
12296;SDS011;6211;49.124;9.152;2023-03-01T03:51:40;2.70;;;2.47;;
12296;SDS011;6211;49.124;9.152;2023-03-01T03:54:09;3.30;;;3.05;;
12296;SDS011;6211;49.124;9.152;2023-03-01T03:56:36;3.65;;;3.35;;
12296;SDS011;6211;49.124;9.152;2023-03-01T03:59:03;2.28;;;1.73;;
12296;SDS011;6211;49.124;9.152;2023-03-01T04:01:30;1.50;;;1.35;;
12296;SDS011;6211;49.124;9.152;2023-03-01T04:03:58;4.13;;;2.25;;
12296;SDS011;6211;49.124;9.152;2023-03-01T04:06:29;4.03;;;2.35;;
12296;SDS011;6211;49.124;9.152;2023-03-01T04:08:56;3.95;;;3.42;;
12296;SDS011;6211;49.124;9.152;2023-03-01T04:11:26;2.20;;;2.10;;
12296;SDS011;6211;49.124;9.152;2023-03-01T04:13:54;2.90;;;2.50;;
12296;SDS011;6211;49.124;9.152;2023-03-01T04:16:21;3.85;;;2.78;;
12296;SDS011;6211;49.124;9.152;2023-03-01T04:18:49;5.65;;;2.50;;
12296;SDS011;6211;49.124;9.152;2023-03-01T04:21:17;2.38;;;2.15;;
12296;SDS011;6211;49.124;9.152;2023-03-01T04:23:45;2.58;;;1.65;;
12296;SDS011;6211;49.124;9.152;2023-03-01T04:26:12;2.03;;;1.92;;
12296;SDS011;6211;49.124;9.152;2023-03-01T04:28:41;3.72;;;3.33;;
12296;SDS011;6211;49.124;9.152;2023-03-01T04:31:11;3.80;;;2.58;;
12296;SDS011;6211;49.124;9.152;2023-03-01T04:33:42;3.85;;;2.83;;
12296;SDS011;6211;49.124;9.152;2023-03-01T04:36:10;2.45;;;2.28;;
12296;SDS011;6211;49.124;9.152;2023-03-01T04:38:38;6.50;;;2.90;;
12296;SDS011;6211;49.124;9.152;2023-03-01T04:41:05;3.38;;;2.83;;
12296;SDS011;6211;49.124;9.152;2023-03-01T04:43:33;3.05;;;2.85;;
12296;SDS011;6211;49.124;9.152;2023-03-01T04:46:02;1.70;;;1.27;;
12296;SDS011;6211;49.124;9.152;2023-03-01T04:48:29;3.47;;;2.15;;
12296;SDS011;6211;49.124;9.152;2023-03-01T04:50:57;4.07;;;2.65;;
12296;SDS011;6211;49.124;9.152;2023-03-01T04:53:25;3.47;;;3.28;;
12296;SDS011;6211;49.124;9.152;2023-03-01T04:55:52;2.47;;;2.28;;
12296;SDS011;6211;49.124;9.152;2023-03-01T04:58:20;3.95;;;3.55;;
12296;SDS011;6211;49.124;9.152;2023-03-01T05:00:47;2.55;;;2.35;;
12296;SDS011;6211;49.124;9.152;2023-03-01T05:03:15;5.63;;;4.30;;
12296;SDS011;6211;49.124;9.152;2023-03-01T05:05:43;3.53;;;3.30;;
12296;SDS011;6211;49.124;9.152;2023-03-01T05:08:11;2.05;;;1.88;;
12296;SDS011;6211;49.124;9.152;2023-03-01T05:10:42;6.22;;;3.53;;
12296;SDS011;6211;49.124;9.152;2023-03-01T05:13:11;3.90;;;3.40;;
12296;SDS011;6211;49.124;9.152;2023-03-01T05:15:40;4.32;;;3.17;;
12296;SDS011;6211;49.124;9.152;2023-03-01T05:18:07;3.20;;;2.67;;
12296;SDS011;6211;49.124;9.152;2023-03-01T05:20:37;3.03;;;2.83;;
12296;SDS011;6211;49.124;9.152;2023-03-01T05:23:05;2.53;;;2.03;;
12296;SDS011;6211;49.124;9.152;2023-03-01T05:25:32;3.38;;;3.08;;
12296;SDS011;6211;49.124;9.152;2023-03-01T05:28:05;3.50;;;3.20;;
12296;SDS011;6211;49.124;9.152;2023-03-01T05:30:32;3.50;;;2.65;;
12296;SDS011;6211;49.124;9.152;2023-03-01T05:33:00;4.72;;;3.13;;
12296;SDS011;6211;49.124;9.152;2023-03-01T05:35:27;3.75;;;2.40;;
12296;SDS011;6211;49.124;9.152;2023-03-01T05:37:58;4.15;;;2.60;;
12296;SDS011;6211;49.124;9.152;2023-03-01T05:40:26;2.17;;;2.03;;
12296;SDS011;6211;49.124;9.152;2023-03-01T05:42:55;2.92;;;2.47;;
12296;SDS011;6211;49.124;9.152;2023-03-01T05:45:23;1.30;;;1.27;;
12296;SDS011;6211;49.124;9.152;2023-03-01T05:47:50;5.10;;;3.63;;
12296;SDS011;6211;49.124;9.152;2023-03-01T05:50:18;1.45;;;1.17;;
12296;SDS011;6211;49.124;9.152;2023-03-01T05:52:46;3.25;;;2.42;;
12296;SDS011;6211;49.124;9.152;2023-03-01T05:55:15;7.07;;;2.10;;
12296;SDS011;6211;49.124;9.152;2023-03-01T05:57:42;4.07;;;2.88;;
12296;SDS011;6211;49.124;9.152;2023-03-01T06:00:10;2.67;;;2.47;;
12296;SDS011;6211;49.124;9.152;2023-03-01T06:02:37;3.67;;;3.20;;
12296;SDS011;6211;49.124;9.152;2023-03-01T06:05:05;4.03;;;2.97;;
12296;SDS011;6211;49.124;9.152;2023-03-01T06:07:32;2.67;;;2.45;;
12296;SDS011;6211;49.124;9.152;2023-03-01T06:10:00;2.25;;;2.15;;
12296;SDS011;6211;49.124;9.152;2023-03-01T06:12:31;3.95;;;2.92;;
12296;SDS011;6211;49.124;9.152;2023-03-01T06:14:58;2.83;;;2.28;;
12296;SDS011;6211;49.124;9.152;2023-03-01T06:17:25;4.22;;;2.72;;
12296;SDS011;6211;49.124;9.152;2023-03-01T06:19:53;3.88;;;2.10;;
12296;SDS011;6211;49.124;9.152;2023-03-01T06:22:20;2.85;;;2.47;;
12296;SDS011;6211;49.124;9.152;2023-03-01T06:24:47;3.05;;;2.22;;
12296;SDS011;6211;49.124;9.152;2023-03-01T06:27:14;2.83;;;2.42;;
12296;SDS011;6211;49.124;9.152;2023-03-01T06:29:43;7.53;;;4.07;;
12296;SDS011;6211;49.124;9.152;2023-03-01T06:32:10;6.40;;;3.42;;
12296;SDS011;6211;49.124;9.152;2023-03-01T06:34:37;3.92;;;2.65;;
12296;SDS011;6211;49.124;9.152;2023-03-01T06:37:04;2.53;;;2.33;;
12296;SDS011;6211;49.124;9.152;2023-03-01T06:39:32;4.70;;;3.13;;
12296;SDS011;6211;49.124;9.152;2023-03-01T06:41:59;3.72;;;2.60;;
12296;SDS011;6211;49.124;9.152;2023-03-01T06:44:27;5.05;;;3.38;;
12296;SDS011;6211;49.124;9.152;2023-03-01T06:46:55;4.00;;;3.65;;
12296;SDS011;6211;49.124;9.152;2023-03-01T06:49:22;4.40;;;2.85;;
12296;SDS011;6211;49.124;9.152;2023-03-01T06:51:49;4.38;;;3.97;;
12296;SDS011;6211;49.124;9.152;2023-03-01T06:54:16;7.22;;;4.75;;
12296;SDS011;6211;49.124;9.152;2023-03-01T06:56:47;4.28;;;3.45;;
12296;SDS011;6211;49.124;9.152;2023-03-01T06:59:14;5.18;;;3.72;;
12296;SDS011;6211;49.124;9.152;2023-03-01T07:01:41;6.15;;;4.80;;
12296;SDS011;6211;49.124;9.152;2023-03-01T07:04:10;4.00;;;3.35;;
12296;SDS011;6211;49.124;9.152;2023-03-01T07:06:37;3.30;;;3.03;;
12296;SDS011;6211;49.124;9.152;2023-03-01T07:09:04;6.07;;;4.28;;
12296;SDS011;6211;49.124;9.152;2023-03-01T07:11:31;4.10;;;3.47;;
12296;SDS011;6211;49.124;9.152;2023-03-01T07:13:58;4.85;;;4.40;;
12296;SDS011;6211;49.124;9.152;2023-03-01T07:16:26;4.38;;;3.88;;
12296;SDS011;6211;49.124;9.152;2023-03-01T07:18:53;6.35;;;4.05;;
12296;SDS011;6211;49.124;9.152;2023-03-01T07:21:21;6.30;;;3.95;;
12296;SDS011;6211;49.124;9.152;2023-03-01T07:23:48;6.05;;;4.43;;
12296;SDS011;6211;49.124;9.152;2023-03-01T07:26:15;6.15;;;4.13;;
12296;SDS011;6211;49.124;9.152;2023-03-01T07:28:42;3.17;;;2.97;;
12296;SDS011;6211;49.124;9.152;2023-03-01T07:31:09;10.18;;;6.00;;
12296;SDS011;6211;49.124;9.152;2023-03-01T07:33:36;7.60;;;5.10;;
12296;SDS011;6211;49.124;9.152;2023-03-01T07:36:04;2.05;;;1.95;;
12296;SDS011;6211;49.124;9.152;2023-03-01T07:38:32;6.63;;;5.43;;
12296;SDS011;6211;49.124;9.152;2023-03-01T07:41:00;5.22;;;3.85;;
12296;SDS011;6211;49.124;9.152;2023-03-01T07:43:28;4.40;;;4.00;;
12296;SDS011;6211;49.124;9.152;2023-03-01T07:45:57;7.45;;;5.32;;
12296;SDS011;6211;49.124;9.152;2023-03-01T07:48:24;2.63;;;2.45;;
12296;SDS011;6211;49.124;9.152;2023-03-01T07:50:52;12.93;;;6.68;;
12296;SDS011;6211;49.124;9.152;2023-03-01T07:53:19;7.30;;;5.15;;
12296;SDS011;6211;49.124;9.152;2023-03-01T07:55:47;5.75;;;4.65;;
12296;SDS011;6211;49.124;9.152;2023-03-01T07:58:14;5.65;;;4.40;;
12296;SDS011;6211;49.124;9.152;2023-03-01T08:00:41;5.25;;;3.38;;
12296;SDS011;6211;49.124;9.152;2023-03-01T08:03:08;9.35;;;4.68;;
12296;SDS011;6211;49.124;9.152;2023-03-01T08:05:35;4.57;;;3.75;;
12296;SDS011;6211;49.124;9.152;2023-03-01T08:08:04;7.00;;;5.15;;
12296;SDS011;6211;49.124;9.152;2023-03-01T08:10:31;7.50;;;4.65;;
12296;SDS011;6211;49.124;9.152;2023-03-01T08:12:59;5.22;;;4.40;;
12296;SDS011;6211;49.124;9.152;2023-03-01T08:15:26;5.80;;;3.97;;
12296;SDS011;6211;49.124;9.152;2023-03-01T08:17:53;8.55;;;4.63;;
12296;SDS011;6211;49.124;9.152;2023-03-01T08:20:20;6.47;;;5.45;;
12296;SDS011;6211;49.124;9.152;2023-03-01T08:22:47;5.30;;;4.53;;
12296;SDS011;6211;49.124;9.152;2023-03-01T08:25:15;4.45;;;4.03;;
12296;SDS011;6211;49.124;9.152;2023-03-01T08:27:42;4.95;;;4.20;;
12296;SDS011;6211;49.124;9.152;2023-03-01T08:30:11;6.82;;;4.85;;
12296;SDS011;6211;49.124;9.152;2023-03-01T08:32:38;4.82;;;3.25;;
12296;SDS011;6211;49.124;9.152;2023-03-01T08:35:06;6.55;;;4.80;;
12296;SDS011;6211;49.124;9.152;2023-03-01T08:37:33;5.75;;;4.10;;
12296;SDS011;6211;49.124;9.152;2023-03-01T08:40:00;2.88;;;2.60;;
12296;SDS011;6211;49.124;9.152;2023-03-01T08:42:28;6.88;;;5.03;;
12296;SDS011;6211;49.124;9.152;2023-03-01T08:44:55;5.20;;;4.70;;
12296;SDS011;6211;49.124;9.152;2023-03-01T08:47:24;3.72;;;3.22;;
12296;SDS011;6211;49.124;9.152;2023-03-01T08:49:51;6.85;;;5.82;;
12296;SDS011;6211;49.124;9.152;2023-03-01T08:52:18;4.78;;;3.40;;
12296;SDS011;6211;49.124;9.152;2023-03-01T08:54:46;7.57;;;6.20;;
12296;SDS011;6211;49.124;9.152;2023-03-01T08:57:14;8.23;;;4.78;;
12296;SDS011;6211;49.124;9.152;2023-03-01T08:59:41;7.82;;;5.50;;
12296;SDS011;6211;49.124;9.152;2023-03-01T09:02:10;6.10;;;3.67;;
12296;SDS011;6211;49.124;9.152;2023-03-01T09:04:40;5.63;;;5.07;;
12296;SDS011;6211;49.124;9.152;2023-03-01T09:07:07;6.32;;;3.47;;
12296;SDS011;6211;49.124;9.152;2023-03-01T09:09:34;8.68;;;5.55;;
12296;SDS011;6211;49.124;9.152;2023-03-01T09:12:02;6.45;;;5.15;;
12296;SDS011;6211;49.124;9.152;2023-03-01T09:14:29;13.23;;;6.68;;
12296;SDS011;6211;49.124;9.152;2023-03-01T09:16:56;7.55;;;6.18;;
12296;SDS011;6211;49.124;9.152;2023-03-01T09:19:23;6.35;;;4.70;;
12296;SDS011;6211;49.124;9.152;2023-03-01T09:21:52;11.82;;;6.70;;
12296;SDS011;6211;49.124;9.152;2023-03-01T09:24:21;9.38;;;6.97;;
12296;SDS011;6211;49.124;9.152;2023-03-01T09:26:48;10.73;;;5.85;;
12296;SDS011;6211;49.124;9.152;2023-03-01T09:29:16;6.60;;;4.75;;
12296;SDS011;6211;49.124;9.152;2023-03-01T09:31:43;10.30;;;6.38;;
12296;SDS011;6211;49.124;9.152;2023-03-01T09:34:10;8.10;;;6.28;;
12296;SDS011;6211;49.124;9.152;2023-03-01T09:36:38;17.90;;;5.18;;
12296;SDS011;6211;49.124;9.152;2023-03-01T09:39:07;8.07;;;5.65;;
12296;SDS011;6211;49.124;9.152;2023-03-01T09:41:38;6.88;;;5.72;;
12296;SDS011;6211;49.124;9.152;2023-03-01T09:44:07;7.45;;;5.78;;
12296;SDS011;6211;49.124;9.152;2023-03-01T09:46:38;7.82;;;4.93;;
12296;SDS011;6211;49.124;9.152;2023-03-01T09:49:09;8.93;;;6.05;;
12296;SDS011;6211;49.124;9.152;2023-03-01T09:51:37;10.40;;;4.57;;
12296;SDS011;6211;49.124;9.152;2023-03-01T09:54:05;7.53;;;5.38;;
12296;SDS011;6211;49.124;9.152;2023-03-01T09:56:36;11.55;;;7.65;;
12296;SDS011;6211;49.124;9.152;2023-03-01T09:59:07;9.63;;;6.35;;
12296;SDS011;6211;49.124;9.152;2023-03-01T10:01:37;6.53;;;5.03;;
12296;SDS011;6211;49.124;9.152;2023-03-01T10:04:17;11.32;;;6.32;;
12296;SDS011;6211;49.124;9.152;2023-03-01T10:06:49;9.07;;;5.82;;
12296;SDS011;6211;49.124;9.152;2023-03-01T10:09:18;9.75;;;5.68;;
12296;SDS011;6211;49.124;9.152;2023-03-01T10:11:48;7.93;;;5.53;;
12296;SDS011;6211;49.124;9.152;2023-03-01T10:14:20;9.35;;;6.25;;
12296;SDS011;6211;49.124;9.152;2023-03-01T10:16:50;9.45;;;6.40;;
12296;SDS011;6211;49.124;9.152;2023-03-01T10:19:20;8.00;;;4.80;;
12296;SDS011;6211;49.124;9.152;2023-03-01T10:21:49;9.60;;;6.43;;
12296;SDS011;6211;49.124;9.152;2023-03-01T10:24:18;7.57;;;5.10;;
12296;SDS011;6211;49.124;9.152;2023-03-01T10:26:50;8.32;;;5.68;;
12296;SDS011;6211;49.124;9.152;2023-03-01T10:29:18;10.15;;;6.20;;
12296;SDS011;6211;49.124;9.152;2023-03-01T10:31:47;9.35;;;5.97;;
12296;SDS011;6211;49.124;9.152;2023-03-01T10:34:16;13.23;;;6.82;;
12296;SDS011;6211;49.124;9.152;2023-03-01T10:36:44;11.13;;;6.25;;
12296;SDS011;6211;49.124;9.152;2023-03-01T10:39:13;9.65;;;6.10;;
12296;SDS011;6211;49.124;9.152;2023-03-01T10:41:55;12.63;;;6.93;;
12296;SDS011;6211;49.124;9.152;2023-03-01T10:44:39;9.15;;;5.93;;
12296;SDS011;6211;49.124;9.152;2023-03-01T10:47:12;11.38;;;6.53;;
12296;SDS011;6211;49.124;9.152;2023-03-01T10:49:42;9.75;;;6.72;;
12296;SDS011;6211;49.124;9.152;2023-03-01T10:52:18;8.43;;;6.38;;
12296;SDS011;6211;49.124;9.152;2023-03-01T10:54:50;10.32;;;7.03;;
12296;SDS011;6211;49.124;9.152;2023-03-01T10:57:24;4.70;;;4.22;;
12296;SDS011;6211;49.124;9.152;2023-03-01T11:00:00;10.02;;;7.15;;
12296;SDS011;6211;49.124;9.152;2023-03-01T11:02:29;10.68;;;6.85;;
12296;SDS011;6211;49.124;9.152;2023-03-01T11:04:59;9.48;;;6.25;;
12296;SDS011;6211;49.124;9.152;2023-03-01T11:07:27;8.45;;;6.10;;
12296;SDS011;6211;49.124;9.152;2023-03-01T11:09:54;6.40;;;5.05;;
12296;SDS011;6211;49.124;9.152;2023-03-01T11:12:23;14.13;;;6.57;;
12296;SDS011;6211;49.124;9.152;2023-03-01T11:14:51;8.35;;;5.47;;
12296;SDS011;6211;49.124;9.152;2023-03-01T11:17:21;9.23;;;6.88;;
12296;SDS011;6211;49.124;9.152;2023-03-01T11:19:59;10.93;;;6.32;;
12296;SDS011;6211;49.124;9.152;2023-03-01T11:22:26;8.63;;;6.20;;
12296;SDS011;6211;49.124;9.152;2023-03-01T11:24:54;12.50;;;7.20;;
12296;SDS011;6211;49.124;9.152;2023-03-01T11:27:25;13.43;;;6.13;;
12296;SDS011;6211;49.124;9.152;2023-03-01T11:29:53;12.48;;;7.05;;
12296;SDS011;6211;49.124;9.152;2023-03-01T11:32:22;9.63;;;6.50;;
12296;SDS011;6211;49.124;9.152;2023-03-01T11:34:52;10.23;;;6.60;;
12296;SDS011;6211;49.124;9.152;2023-03-01T11:37:21;11.77;;;6.78;;
12296;SDS011;6211;49.124;9.152;2023-03-01T11:39:53;10.60;;;6.50;;
12296;SDS011;6211;49.124;9.152;2023-03-01T11:42:28;10.45;;;6.75;;
12296;SDS011;6211;49.124;9.152;2023-03-01T11:45:01;11.05;;;7.13;;
12296;SDS011;6211;49.124;9.152;2023-03-01T11:47:32;9.45;;;5.43;;
12296;SDS011;6211;49.124;9.152;2023-03-01T11:50:04;12.35;;;7.30;;
12296;SDS011;6211;49.124;9.152;2023-03-01T11:52:36;10.68;;;6.68;;
12296;SDS011;6211;49.124;9.152;2023-03-01T11:57:41;11.48;;;6.95;;
12296;SDS011;6211;49.124;9.152;2023-03-01T12:00:20;10.13;;;6.75;;
12296;SDS011;6211;49.124;9.152;2023-03-01T12:05:38;13.93;;;7.00;;
12296;SDS011;6211;49.124;9.152;2023-03-01T12:08:14;11.82;;;7.18;;
12296;SDS011;6211;49.124;9.152;2023-03-01T12:10:47;10.68;;;7.05;;
12296;SDS011;6211;49.124;9.152;2023-03-01T12:13:20;10.98;;;6.82;;
12296;SDS011;6211;49.124;9.152;2023-03-01T12:16:09;13.35;;;7.03;;
12296;SDS011;6211;49.124;9.152;2023-03-01T12:18:50;9.73;;;6.32;;
12296;SDS011;6211;49.124;9.152;2023-03-01T12:21:27;9.77;;;6.32;;
12296;SDS011;6211;49.124;9.152;2023-03-01T12:24:07;14.90;;;7.47;;
12296;SDS011;6211;49.124;9.152;2023-03-01T12:26:38;8.88;;;5.80;;
12296;SDS011;6211;49.124;9.152;2023-03-01T12:29:15;11.95;;;6.90;;
12296;SDS011;6211;49.124;9.152;2023-03-01T12:37:27;11.15;;;7.03;;
12296;SDS011;6211;49.124;9.152;2023-03-01T12:40:01;8.57;;;6.55;;
12296;SDS011;6211;49.124;9.152;2023-03-01T12:42:30;10.32;;;6.35;;
12296;SDS011;6211;49.124;9.152;2023-03-01T12:47:46;10.27;;;6.57;;
12296;SDS011;6211;49.124;9.152;2023-03-01T12:50:19;9.55;;;6.22;;
12296;SDS011;6211;49.124;9.152;2023-03-01T12:52:49;10.57;;;6.90;;
12296;SDS011;6211;49.124;9.152;2023-03-01T12:55:19;9.52;;;6.95;;
12296;SDS011;6211;49.124;9.152;2023-03-01T12:57:51;9.38;;;6.25;;
12296;SDS011;6211;49.124;9.152;2023-03-01T13:00:25;10.95;;;6.45;;
12296;SDS011;6211;49.124;9.152;2023-03-01T13:02:55;10.15;;;7.03;;
12296;SDS011;6211;49.124;9.152;2023-03-01T13:05:29;8.02;;;6.57;;
12296;SDS011;6211;49.124;9.152;2023-03-01T13:08:01;11.25;;;6.55;;
12296;SDS011;6211;49.124;9.152;2023-03-01T13:10:30;12.05;;;6.50;;
12296;SDS011;6211;49.124;9.152;2023-03-01T13:13:09;12.40;;;6.75;;
12296;SDS011;6211;49.124;9.152;2023-03-01T13:15:38;11.77;;;7.13;;
12296;SDS011;6211;49.124;9.152;2023-03-01T13:20:48;10.90;;;7.25;;
12296;SDS011;6211;49.124;9.152;2023-03-01T13:23:25;11.50;;;6.78;;
12296;SDS011;6211;49.124;9.152;2023-03-01T13:26:00;12.18;;;7.28;;
12296;SDS011;6211;49.124;9.152;2023-03-01T13:28:39;10.38;;;6.63;;
12296;SDS011;6211;49.124;9.152;2023-03-01T13:31:07;12.60;;;7.20;;
12296;SDS011;6211;49.124;9.152;2023-03-01T13:33:44;10.52;;;6.40;;
12296;SDS011;6211;49.124;9.152;2023-03-01T13:36:13;11.30;;;7.25;;
12296;SDS011;6211;49.124;9.152;2023-03-01T13:39:02;9.77;;;6.85;;
12296;SDS011;6211;49.124;9.152;2023-03-01T13:41:48;10.57;;;7.13;;
12296;SDS011;6211;49.124;9.152;2023-03-01T13:44:17;10.43;;;6.88;;
12296;SDS011;6211;49.124;9.152;2023-03-01T13:46:48;8.93;;;6.15;;
12296;SDS011;6211;49.124;9.152;2023-03-01T13:49:16;11.80;;;6.80;;
12296;SDS011;6211;49.124;9.152;2023-03-01T13:51:45;11.13;;;7.40;;
12296;SDS011;6211;49.124;9.152;2023-03-01T13:54:15;13.40;;;7.82;;
12296;SDS011;6211;49.124;9.152;2023-03-01T13:56:42;12.68;;;7.28;;
12296;SDS011;6211;49.124;9.152;2023-03-01T13:59:13;8.48;;;6.25;;
12296;SDS011;6211;49.124;9.152;2023-03-01T14:01:40;11.30;;;6.80;;
12296;SDS011;6211;49.124;9.152;2023-03-01T14:04:17;14.02;;;7.45;;
12296;SDS011;6211;49.124;9.152;2023-03-01T14:06:45;12.43;;;6.65;;
12296;SDS011;6211;49.124;9.152;2023-03-01T14:09:15;11.30;;;6.70;;
12296;SDS011;6211;49.124;9.152;2023-03-01T14:11:54;9.43;;;6.65;;
12296;SDS011;6211;49.124;9.152;2023-03-01T14:14:29;10.32;;;6.68;;
12296;SDS011;6211;49.124;9.152;2023-03-01T14:17:00;10.90;;;7.25;;
12296;SDS011;6211;49.124;9.152;2023-03-01T14:19:32;10.07;;;6.70;;
12296;SDS011;6211;49.124;9.152;2023-03-01T14:22:03;9.85;;;6.72;;
12296;SDS011;6211;49.124;9.152;2023-03-01T14:24:33;9.45;;;6.90;;
12296;SDS011;6211;49.124;9.152;2023-03-01T14:27:04;11.57;;;7.47;;
12296;SDS011;6211;49.124;9.152;2023-03-01T14:29:33;9.85;;;6.57;;
12296;SDS011;6211;49.124;9.152;2023-03-01T14:32:11;9.63;;;6.18;;
12296;SDS011;6211;49.124;9.152;2023-03-01T14:34:42;8.82;;;6.60;;
12296;SDS011;6211;49.124;9.152;2023-03-01T14:37:10;9.77;;;6.72;;
12296;SDS011;6211;49.124;9.152;2023-03-01T14:39:38;11.77;;;7.20;;
12296;SDS011;6211;49.124;9.152;2023-03-01T14:42:05;10.95;;;6.22;;
12296;SDS011;6211;49.124;9.152;2023-03-01T14:44:32;10.85;;;7.10;;
12296;SDS011;6211;49.124;9.152;2023-03-01T14:47:02;8.45;;;6.30;;
12296;SDS011;6211;49.124;9.152;2023-03-01T14:49:30;9.25;;;6.93;;
12296;SDS011;6211;49.124;9.152;2023-03-01T14:51:58;8.93;;;5.90;;
12296;SDS011;6211;49.124;9.152;2023-03-01T14:54:27;11.15;;;7.28;;
12296;SDS011;6211;49.124;9.152;2023-03-01T14:56:59;10.85;;;6.97;;
12296;SDS011;6211;49.124;9.152;2023-03-01T14:59:26;9.70;;;5.72;;
12296;SDS011;6211;49.124;9.152;2023-03-01T15:01:55;9.95;;;7.05;;
12296;SDS011;6211;49.124;9.152;2023-03-01T15:04:23;10.23;;;7.07;;
12296;SDS011;6211;49.124;9.152;2023-03-01T15:06:51;10.68;;;6.22;;
12296;SDS011;6211;49.124;9.152;2023-03-01T15:09:18;10.35;;;6.15;;
12296;SDS011;6211;49.124;9.152;2023-03-01T15:11:45;10.00;;;6.72;;
12296;SDS011;6211;49.124;9.152;2023-03-01T15:14:27;8.10;;;6.35;;
12296;SDS011;6211;49.124;9.152;2023-03-01T15:16:55;13.50;;;6.78;;
12296;SDS011;6211;49.124;9.152;2023-03-01T15:19:24;10.45;;;6.45;;
12296;SDS011;6211;49.124;9.152;2023-03-01T15:21:54;8.68;;;6.55;;
12296;SDS011;6211;49.124;9.152;2023-03-01T15:24:23;14.07;;;7.00;;
12296;SDS011;6211;49.124;9.152;2023-03-01T15:26:52;10.38;;;6.80;;
12296;SDS011;6211;49.124;9.152;2023-03-01T15:29:23;12.52;;;6.70;;